Flight Track Log - Related Links

Times and Time Zones

All times are in EDT time to prevent confusion due to time zone crossing. See the UAL4663 flight status page for this flight to view local times or setup timezone preferences in your user account.

Time Position Orientation Groundspeed Altitude Reporting Facility
EDT Latitude Longitude Course Direction KTS MPH feet Rate Location/Type
Mon 07:04:16 PM 40.7369 -74.1261 201° Southwest 195 224 2,500  Level New York Center
Mon 07:05:17 PM 40.7664 -74.1850 303° West 244 281 5,000 2,281 Climbing New York Center
Mon 07:06:17 PM 40.7011 -74.2147 199° South 251 289 7,100 2,186 Climbing New York Center
Mon 07:07:00 PM 40.3289 -74.1644 159° South  Level FlightAware Approximate
Mon 07:07:15 PM 40.6514 -74.2722 221° Southwest 264 304 9,300  Level New York Center
Mon 07:08:00 PM 40.2350 -74.1717 194° South  Level FlightAware Approximate
Mon 07:08:16 PM 40.5872 -74.3292 214° Southwest 292 336 11,300  Level New York Center
Mon 07:09:00 PM 40.1404 -74.2048 201° Southwest  Level FlightAware Approximate
Mon 07:09:16 PM 40.5178 -74.2792 151° Southeast 320 368 12,500  Level New York Center
Mon 07:10:25 PM 40.4167 -74.2167 155° Southeast 321 369 14,800 1,736 Climbing New York TRACON
Mon 07:11:17 PM 40.3517 -74.1861 160° South 353 406 16,000 1,145 Climbing New York Center
Mon 07:12:15 PM 40.2603 -74.1789 177° South 335 386 16,900 508 Climbing New York Center
Mon 07:13:15 PM 40.1617 -74.2067 192° South 354 407 17,000  Climbing New York Center
Mon 07:13:43 PM 40.1119 -74.2189 191° South 427 491 16,900 750 Descending Washington Center
Mon 07:14:43 PM 40.0061 -74.2561 195° South 408 470 18,100 1,400 Climbing Washington Center
Mon 07:15:43 PM 39.9236 -74.3336 216° Southwest 371 427 19,700 1,600 Climbing Washington Center
Mon 07:16:43 PM 39.8411 -74.4081 215° Southwest 364 419 21,300 1,650 Climbing Washington Center
Mon 07:17:43 PM 39.7711 -74.4981 225° Southwest 364 419 23,000 1,500 Climbing Washington Center
Mon 07:18:43 PM 39.7153 -74.5664 223° Southwest 357 411 24,300 1,400 Climbing Washington Center
Mon 07:19:43 PM 39.6433 -74.6592 225° Southwest 343 395 25,800 850 Climbing Washington Center
Mon 07:20:43 PM 39.5772 -74.7461 225° Southwest 338 389 26,000 100 Climbing Washington Center
Mon 07:21:43 PM 39.5092 -74.8411 227° Southwest 345 397 26,000  Level Washington Center
Mon 07:22:43 PM 39.4344 -74.9358 224° Southwest 359 413 26,000  Level Washington Center
Mon 07:23:42 PM 39.3600 -75.0358 226° Southwest 373 429 26,000  Level Washington Center
Mon 07:24:43 PM 39.2875 -75.1331 226° Southwest 383 441 26,000  Level Washington Center
Mon 07:25:43 PM 39.2108 -75.2300 224° Southwest 383 441 26,000  Level Washington Center
Mon 07:26:43 PM 39.1381 -75.3239 225° Southwest 383 441 26,000  Level Washington Center
Mon 07:27:43 PM 39.0633 -75.4258 227° Southwest 383 441 26,000  Level Washington Center
Mon 07:28:43 PM 38.9819 -75.5194 222° Southwest 383 441 26,000  Level Washington Center
Mon 07:29:43 PM 38.9092 -75.6183 227° Southwest 383 441 26,000  Level Washington Center
Mon 07:30:43 PM 38.8589 -75.7436 243° Southwest 389 448 26,000  Level Washington Center
Mon 07:31:43 PM 38.8169 -75.8767 248° West 394 453 26,000  Level Washington Center
Mon 07:32:43 PM 38.7458 -75.9775 228° Southwest 387 445 26,000  Level Washington Center
Mon 07:33:43 PM 38.6561 -76.0594 216° Southwest 387 445 26,000  Level Washington Center
Mon 07:34:43 PM 38.5661 -76.1439 216° Southwest 394 453 26,000  Level Washington Center
Mon 07:35:43 PM 38.4675 -76.2386 217° Southwest 410 472 26,000  Level Washington Center
Mon 07:36:43 PM 38.3858 -76.3122 215° Southwest 410 472 26,000  Level Washington Center
Mon 07:37:43 PM 38.2914 -76.3986 216° Southwest 396 456 26,000  Level Washington Center
Mon 07:38:43 PM 38.2156 -76.5008 227° Southwest 396 456 26,000  Level Washington Center
Mon 07:39:43 PM 38.1439 -76.6031 228° Southwest 396 456 26,000  Level Washington Center
Mon 07:40:43 PM 38.0681 -76.7047 227° Southwest 401 461 26,000  Level Washington Center
Mon 07:41:43 PM 37.9939 -76.8092 228° Southwest 401 461 26,000 -300 Level Washington Center
Mon 07:42:43 PM 37.8953 -76.8681 205° Southwest 394 453 25,400 -1,050 Descending Washington Center
Mon 07:43:43 PM 37.7925 -76.9161 200° South 394 453 23,900 -1,500 Descending Washington Center
Mon 07:44:43 PM 37.6878 -76.9617 199° South 394 453 22,400 -950 Descending Washington Center
Mon 07:45:43 PM 37.5850 -77.0044 198° South 394 453 22,000 -200 Descending Washington Center
Mon 07:46:43 PM 37.4803 -77.0522 200° South 399 459 22,000  Level Washington Center
Mon 07:47:43 PM 37.3797 -77.0947 199° South 399 459 22,000  Level Washington Center
Mon 07:48:43 PM 37.2956 -77.1425 204° Southwest 356 410 22,000  Level Washington Center
Mon 07:50:00 PM 37.1831 -77.1998 202° Southwest  Level FlightAware Approximate
Mon 07:50:43 PM 37.1356 -77.2489 202° Southwest 346 398 22,000  Level Washington Center
Mon 07:51:43 PM 37.0533 -77.3094 210° Southwest 341 392 22,000  Level Washington Center
Mon 07:52:43 PM 36.9711 -77.3700 210° Southwest 341 392 22,000  Level Washington Center
Mon 07:53:43 PM 36.8931 -77.4281 211° Southwest 341 392 22,000 -600 Level Washington Center
Mon 07:54:43 PM 36.8128 -77.4883 211° Southwest 341 392 20,800 -1,250 Descending Washington Center
Mon 07:55:43 PM 36.7283 -77.5511 211° Southwest 346 398 19,500 -1,150 Descending Washington Center
Mon 07:56:43 PM 36.6439 -77.6136 211° Southwest 346 398 18,500 -900 Descending Washington Center
Mon 07:57:43 PM 36.5594 -77.6761 211° Southwest 351 404 17,700 -850 Descending Washington Center
Mon 07:58:43 PM 36.4786 -77.7644 221° Southwest 351 404 16,800 -1,000 Descending Washington Center
Mon 07:59:43 PM 36.4144 -77.8503 227° Southwest 351 404 15,700 -1,096 Descending Washington Center
Mon 08:00:27 PM 36.3631 -77.9158 226° Southwest 345 397 14,900 -1,100 Descending Washington Center
Mon 08:00:43 PM 36.3481 -77.9361 227° Southwest 351 404 14,600 -711 Descending Washington Center
Mon 08:01:43 PM 36.2836 -78.0217 227° Southwest 346 398 14,000 -908 Descending Washington Center
Mon 08:02:42 PM 36.2172 -78.1100 227° Southwest 346 398 12,800 -1,400 Descending Washington Center
Mon 08:03:43 PM 36.1547 -78.1978 229° Southwest 346 398 11,200 -1,488 Descending Washington Center
Mon 08:04:43 PM 36.1153 -78.2867 241° Southwest 334 384 9,800 -1,300 Descending Washington Center
Mon 08:05:43 PM 36.0717 -78.3750 239° Southwest 297 342 8,600 -857 Descending Washington Center
Mon 08:06:49 PM 36.0278 -78.4661 239° Southwest 274 315 8,000 -271 Descending Washington Center
Mon 08:07:56 PM 35.9756 -78.5461 231° Southwest 273 314 8,000  Level Washington Center
Mon 08:08:43 PM 35.9325 -78.5986 225° Southwest 281 323 8,000  Level Washington Center
Mon 08:09:43 PM 35.8728 -78.6553 218° Southwest 281 323 8,000  Level Washington Center
Mon 08:10:03 PM 35.8472 -78.6747 212° Southwest 265 305 8,000 -889 Level Washington Center
Mon 08:11:04 PM 35.7933 -78.7392 224° Southwest 269 310 6,800 -1,289 Descending Washington Center
Mon 08:12:04 PM 35.7394 -78.8086 226° Southwest 278 320 5,400 -1,370 Descending Washington Center
Mon 08:13:11 PM 35.7142 -78.8894 249° West 253 291 3,900 -1,433 Descending Washington Center
Mon 08:14:18 PM 35.7617 -78.9094 341° North 189 217 2,200 -893 Descending Washington Center
Mon 08:15:12 PM 35.8039 -78.8908 20° North 163 188 2,100 -313 Descending Washington Center
Mon 08:16:13 PM 35.8297 -78.8583 46° Northeast 117 135 1,600 -574 Descending Washington Center
Mon 08:17:07 PM 35.8494 -78.8311 48° Northeast 123 142 1,000 -667 Descending Washington Center

Login

Don't have an account? Register now (free) for customized features, flight alerts, and more!